Maroudio — V7BB7 — position and weather

sailwx.info

Track history (hours):
 
Tides and Currents Weather Stations Pressure Air Temp Water Temp Dewpoint Dewpoint Depression Visibility Wind Speed Wind Dir Waves Ship Positions

Maroudio

Last reported at 2018-Jul-04 05:41 UTC. Time now 2018-Jul-22 08:47 UTC.
Position N 01°19' E 104°48'.
Warning: this ship's position is 18 days out of date.

Length 190 m; draft 6.5 m.

Type: Cargo ship. MMSI: 538007262.

Date/timePositionNaut miles runAvg speedWind from/ knotsBaromVisibWave heightAir tempDewpointWater temp
2018-Jul-04 05:41N 01°19' E 104°48'412.8
2018-Jul-04 05:24N 01°20' E 104°44'512.5
2018-Jul-04 04:58N 01°21' E 104°39'612.0
2018-Jul-04 04:29N 01°24' E 104°34'611.0
2018-Jul-04 03:58N 01°25' E 104°29'713.8
2018-Jul-04 03:28N 01°20' E 104°23'713.7
2018-Jul-04 02:59N 01°17' E 104°17'714.0
2018-Jul-04 02:30N 01°16' E 104°11'612.0
2018-Jul-04 02:01N 01°16' E 104°05'5 9.0
2018-Jul-04 01:30N 01°17' E 104°00'2 3.5
2018-Jul-04 00:58N 01°17' E 103°59'0 0.0
2018-Jul-04 00:30N 01°17' E 103°59'0 0.0
2018-Jul-03 23:55N 01°17' E 103°59'0 0.1
2018-Jul-03 23:28N 01°17' E 103°59'0 0.0
2018-Jul-03 22:46N 01°17' E 103°59'0 0.0
2018-Jul-03 22:21N 01°17' E 103°59'0 0.0
2018-Jul-03 21:33N 01°17' E 103°59'0 0.0
2018-Jul-03 21:28N 01°17' E 103°59'0 0.0
2018-Jul-03 20:58N 01°17' E 103°59'0 0.0
2018-Jul-03 20:28N 01°17' E 103°59'0 0.1
2018-Jul-03 19:51N 01°17' E 103°59'0 0.0
2018-Jul-03 19:30N 01°17' E 103°59'0 0.1
2018-Jul-03 18:57N 01°17' E 103°59'0 0.1
2018-Jul-03 18:30N 01°17' E 103°59'0 0.2
2018-Jul-03 17:55N 01°17' E 103°58'0 0.2
2018-Jul-03 17:28N 01°17' E 103°58'0 0.0
2018-Jul-03 16:54N 01°17' E 103°58'0 0.0
2018-Jul-03 16:18N 01°17' E 103°58'0 0.0
2018-Jul-03 15:58N 01°17' E 103°58'0 0.0
2018-Jul-03 15:27N 01°17' E 103°58'0 0.0
2018-Jul-03 15:00N 01°17' E 103°58'0 0.0
2018-Jul-03 14:30N 01°17' E 103°58'0 0.1
2018-Jul-03 13:51N 01°17' E 103°58'0 0.2
2018-Jul-03 13:29N 01°17' E 103°58'0 0.2
2018-Jul-03 12:57N 01°17' E 103°58'0 0.1
2018-Jul-03 12:20N 01°17' E 103°58'0 0.0
2018-Jul-03 11:51N 01°17' E 103°58'0 0.2
2018-Jul-03 11:30N 01°17' E 103°58'1 1.2
2018-Jul-03 11:00N 01°17' E 103°59'3 4.8
2018-Jul-03 10:28N 01°16' E 104°01'4 7.4
2018-Jul-03 10:00N 01°16' E 104°05'610.2
2018-Jul-03 09:27N 01°17' E 104°10'612.3
2018-Jul-03 08:59N 01°18' E 104°16'712.6
2018-Jul-03 08:28N 01°21' E 104°22'712.7
2018-Jul-03 07:57N 01°25' E 104°27'  
Track history (hours):
 
Tides and Currents Weather Stations Pressure Air Temp Water Temp Dewpoint Dewpoint Depression Visibility Wind Speed Wind Dir Waves Ship Positions

Maroudio

Last reported at 2018-Jul-04 05:41 UTC. Time now 2018-Jul-22 08:47 UTC.
Position N 01°19' E 104°48'.
Warning: this ship's position is 18 days out of date.

Length 190 m; draft 6.5 m.

Type: Cargo ship. MMSI: 538007262.

Date/timePositionNaut miles runAvg speedWind from/ knotsBaromVisibWave heightAir tempDewpointWater temp
2018-Jul-04 05:41N 01°19' E 104°48'412.8
2018-Jul-04 05:24N 01°20' E 104°44'512.5
2018-Jul-04 04:58N 01°21' E 104°39'612.0
2018-Jul-04 04:29N 01°24' E 104°34'611.0
2018-Jul-04 03:58N 01°25' E 104°29'713.8
2018-Jul-04 03:28N 01°20' E 104°23'713.7
2018-Jul-04 02:59N 01°17' E 104°17'714.0
2018-Jul-04 02:30N 01°16' E 104°11'612.0
2018-Jul-04 02:01N 01°16' E 104°05'5 9.0
2018-Jul-04 01:30N 01°17' E 104°00'2 3.5
2018-Jul-04 00:58N 01°17' E 103°59'0 0.0
2018-Jul-04 00:30N 01°17' E 103°59'0 0.0
2018-Jul-03 23:55N 01°17' E 103°59'0 0.1
2018-Jul-03 23:28N 01°17' E 103°59'0 0.0
2018-Jul-03 22:46N 01°17' E 103°59'0 0.0
2018-Jul-03 22:21N 01°17' E 103°59'0 0.0
2018-Jul-03 21:33N 01°17' E 103°59'0 0.0
2018-Jul-03 21:28N 01°17' E 103°59'0 0.0
2018-Jul-03 20:58N 01°17' E 103°59'0 0.0
2018-Jul-03 20:28N 01°17' E 103°59'0 0.1
2018-Jul-03 19:51N 01°17' E 103°59'0 0.0
2018-Jul-03 19:30N 01°17' E 103°59'0 0.1
2018-Jul-03 18:57N 01°17' E 103°59'0 0.1
2018-Jul-03 18:30N 01°17' E 103°59'0 0.2
2018-Jul-03 17:55N 01°17' E 103°58'0 0.2
2018-Jul-03 17:28N 01°17' E 103°58'0 0.0
2018-Jul-03 16:54N 01°17' E 103°58'0 0.0
2018-Jul-03 16:18N 01°17' E 103°58'0 0.0
2018-Jul-03 15:58N 01°17' E 103°58'0 0.0
2018-Jul-03 15:27N 01°17' E 103°58'0 0.0
2018-Jul-03 15:00N 01°17' E 103°58'0 0.0
2018-Jul-03 14:30N 01°17' E 103°58'0 0.1
2018-Jul-03 13:51N 01°17' E 103°58'0 0.2
2018-Jul-03 13:29N 01°17' E 103°58'0 0.2
2018-Jul-03 12:57N 01°17' E 103°58'0 0.1
2018-Jul-03 12:20N 01°17' E 103°58'0 0.0
2018-Jul-03 11:51N 01°17' E 103°58'0 0.2
2018-Jul-03 11:30N 01°17' E 103°58'1 1.2
2018-Jul-03 11:00N 01°17' E 103°59'3 4.8
2018-Jul-03 10:28N 01°16' E 104°01'4 7.4
2018-Jul-03 10:00N 01°16' E 104°05'610.2
2018-Jul-03 09:27N 01°17' E 104°10'612.3
2018-Jul-03 08:59N 01°18' E 104°16'712.6
2018-Jul-03 08:28N 01°21' E 104°22'712.7
2018-Jul-03 07:57N 01°25' E 104°27'  

Dump ship's entire track history